Date,TemperatureHighF,TemperatureAvgF,TemperatureLowF,DewpointHighF,DewpointAvgF,DewpointLowF,HumidityHigh,HumidityAvg,HumidityLow,PressureMaxIn,PressureMinIn,WindSpeedMaxMPH,WindSpeedAvgMPH,GustSpeedMaxMPH,PrecipitationSumIn
2013-10-1,79.6,65.6,54.8,63.2,58.5,53.6,99,80,50,30.00,29.88,0,0,0,0.00
2013-10-2,84.5,70.7,59.0,63.0,59.9,56.6,96,72,39,30.00,29.90,0,0,0,0.00
2013-10-3,79.4,70.3,61.3,67.3,63.4,60.0,99,80,59,30.03,29.95,0,0,0,0.00
2013-10-4,85.1,71.6,62.1,70.8,65.6,62.0,100,83,48,30.00,29.91,0,0,0,0.00
2013-10-5,83.8,74.2,66.4,68.6,66.9,65.0,99,80,54,30.00,29.93,0,0,0,0.00
2013-10-6,84.0,73.6,66.6,71.3,67.7,65.0,100,83,56,29.96,29.86,0,0,0,0.00
2013-10-7,77.4,67.7,54.8,71.5,65.0,53.1,99,91,71,29.97,29.73,0,0,0,0.76
2013-10-8,64.8,56.7,49.5,53.4,49.3,44.8,98,78,50,30.21,29.97,0,0,0,0.00
2013-10-9,61.3,58.9,54.1,54.0,51.6,46.7,97,77,61,30.24,30.13,0,0,0,0.03
2013-10-10,61.2,58.7,56.7,61.2,58.3,53.3,100,99,85,30.13,29.90,0,0,0,1.41
2013-10-11,65.8,63.8,61.0,65.8,63.7,61.0,100,100,98,29.92,29.84,0,0,0,1.84
2013-10-12,65.5,63.3,60.9,65.5,61.3,56.1,100,93,73,30.09,29.91,0,0,0,0.55
2013-10-13,65.0,61.6,57.8,63.1,57.9,53.4,100,88,72,30.27,30.09,0,0,0,0.16
2013-10-14,67.8,60.0,53.5,55.4,53.9,52.3,99,81,59,30.27,20.30,0,0,117,0.00
2013-10-15,70.8,60.2,51.9,61.3,53.0,43.7,100,80,42,30.18,30.02,0,0,0,0.00
2013-10-16,66.3,63.2,60.5,63.3,60.1,56.8,98,90,82,30.02,29.86,0,0,0,0.00
2013-10-17,71.1,66.0,61.2,67.3,63.0,58.0,100,91,76,29.85,29.65,0,0,0,0.00
2013-10-18,66.8,57.4,48.6,58.0,46.0,39.9,97,68,40,29.95,29.73,0,0,0,0.00
2013-10-19,63.9,56.0,46.5,60.1,51.9,46.0,100,87,55,29.94,29.73,0,0,0,0.01
2013-10-20,63.2,53.3,43.3,48.3,38.3,31.2,93,59,31,30.05,29.79,0,0,0,0.00
2013-10-21,67.3,53.6,42.1,50.0,43.7,35.8,100,73,35,30.11,29.91,0,0,0,0.00
2013-10-22,64.0,54.9,47.9,49.6,47.7,41.6,94,78,54,29.92,29.74,0,0,0,0.00
2013-10-23,54.7,50.2,45.7,44.9,41.6,35.9,92,73,55,29.77,20.30,0,0,116,0.08
2013-10-24,54.2,45.7,35.3,41.0,29.7,23.3,84,55,36,30.08,29.58,0,0,0,0.08
2013-10-25,55.0,43.9,35.3,33.5,31.2,28.6,84,63,39,30.27,30.08,0,0,0,0.00
2013-10-26,57.0,45.0,31.5,32.4,29.6,24.7,94,59,30,30.25,29.88,0,0,0,0.00
2013-10-27,59.8,49.2,39.8,39.5,35.3,31.6,94,62,37,30.09,29.88,0,0,0,0.00
2013-10-28,63.7,48.9,38.0,48.7,42.4,37.5,100,81,43,30.22,30.08,0,0,0,0.00
2013-10-29,61.8,50.1,41.6,48.5,44.3,41.3,100,83,53,30.31,30.22,0,0,0,0.00
2013-10-30,62.6,55.4,48.6,60.5,53.9,47.7,100,95,76,30.27,30.08,0,0,0,0.09
2013-10-31,69.4,62.1,53.1,64.2,58.9,53.1,100,90,69,30.14,29.73,0,0,0,0.01